sensor_id;sensor_type;location;lat;lon;timestamp;P1;durP1;ratioP1;P2;durP2;ratioP2
17917;SDS011;9084;50.956;3.106;2022-09-17T00:01:01;6.95;;;1.20;;
17917;SDS011;9084;50.956;3.106;2022-09-17T00:03:27;7.80;;;1.70;;
17917;SDS011;9084;50.956;3.106;2022-09-17T00:05:59;6.32;;;1.67;;
17917;SDS011;9084;50.956;3.106;2022-09-17T00:08:29;8.40;;;1.73;;
17917;SDS011;9084;50.956;3.106;2022-09-17T00:10:55;4.53;;;1.17;;
17917;SDS011;9084;50.956;3.106;2022-09-17T00:13:21;6.95;;;1.60;;
17917;SDS011;9084;50.956;3.106;2022-09-17T00:15:47;8.32;;;2.42;;
17917;SDS011;9084;50.956;3.106;2022-09-17T00:18:13;7.28;;;1.60;;
17917;SDS011;9084;50.956;3.106;2022-09-17T00:20:43;4.80;;;1.88;;
17917;SDS011;9084;50.956;3.106;2022-09-17T00:23:11;10.18;;;1.85;;
17917;SDS011;9084;50.956;3.106;2022-09-17T00:25:42;9.45;;;1.45;;
17917;SDS011;9084;50.956;3.106;2022-09-17T00:28:13;7.40;;;1.92;;
17917;SDS011;9084;50.956;3.106;2022-09-17T00:30:40;13.25;;;2.03;;
17917;SDS011;9084;50.956;3.106;2022-09-17T00:33:08;5.72;;;1.50;;
17917;SDS011;9084;50.956;3.106;2022-09-17T00:35:39;6.75;;;1.67;;
17917;SDS011;9084;50.956;3.106;2022-09-17T00:38:06;12.95;;;2.58;;
17917;SDS011;9084;50.956;3.106;2022-09-17T00:40:34;14.23;;;3.15;;
17917;SDS011;9084;50.956;3.106;2022-09-17T00:42:59;7.88;;;2.58;;
17917;SDS011;9084;50.956;3.106;2022-09-17T00:45:26;18.52;;;2.67;;
17917;SDS011;9084;50.956;3.106;2022-09-17T00:47:57;19.33;;;3.40;;
17917;SDS011;9084;50.956;3.106;2022-09-17T00:50:37;13.10;;;2.80;;
17917;SDS011;9084;50.956;3.106;2022-09-17T00:53:07;12.35;;;3.22;;
17917;SDS011;9084;50.956;3.106;2022-09-17T00:55:37;18.38;;;3.25;;
17917;SDS011;9084;50.956;3.106;2022-09-17T00:58:14;12.15;;;2.40;;
17917;SDS011;9084;50.956;3.106;2022-09-17T01:00:44;14.73;;;3.40;;
17917;SDS011;9084;50.956;3.106;2022-09-17T01:03:13;14.57;;;2.92;;
17917;SDS011;9084;50.956;3.106;2022-09-17T01:05:46;11.18;;;2.50;;
17917;SDS011;9084;50.956;3.106;2022-09-17T01:11:25;14.32;;;3.03;;
17917;SDS011;9084;50.956;3.106;2022-09-17T01:19:49;9.88;;;2.35;;
17917;SDS011;9084;50.956;3.106;2022-09-17T01:22:32;8.38;;;2.20;;
17917;SDS011;9084;50.956;3.106;2022-09-17T01:25:12;10.60;;;2.42;;
17917;SDS011;9084;50.956;3.106;2022-09-17T01:53:46;7.78;;;1.30;;
17917;SDS011;9084;50.956;3.106;2022-09-17T01:56:22;7.00;;;2.00;;
17917;SDS011;9084;50.956;3.106;2022-09-17T01:59:03;5.95;;;1.83;;
17917;SDS011;9084;50.956;3.106;2022-09-17T02:01:36;7.03;;;1.70;;
17917;SDS011;9084;50.956;3.106;2022-09-17T02:04:17;8.73;;;2.10;;
17917;SDS011;9084;50.956;3.106;2022-09-17T02:06:59;5.80;;;2.55;;
17917;SDS011;9084;50.956;3.106;2022-09-17T02:09:35;9.50;;;1.75;;
17917;SDS011;9084;50.956;3.106;2022-09-17T02:12:06;7.93;;;1.63;;
17917;SDS011;9084;50.956;3.106;2022-09-17T02:14:46;15.10;;;2.03;;
17917;SDS011;9084;50.956;3.106;2022-09-17T02:17:18;11.15;;;2.05;;
17917;SDS011;9084;50.956;3.106;2022-09-17T02:19:48;10.82;;;1.85;;
17917;SDS011;9084;50.956;3.106;2022-09-17T02:22:28;7.63;;;2.00;;
17917;SDS011;9084;50.956;3.106;2022-09-17T02:25:05;8.07;;;1.85;;
17917;SDS011;9084;50.956;3.106;2022-09-17T02:27:38;12.43;;;2.15;;
17917;SDS011;9084;50.956;3.106;2022-09-17T02:30:07;3.50;;;1.70;;
17917;SDS011;9084;50.956;3.106;2022-09-17T02:32:35;8.45;;;1.75;;
17917;SDS011;9084;50.956;3.106;2022-09-17T02:35:02;5.85;;;1.60;;
17917;SDS011;9084;50.956;3.106;2022-09-17T02:37:28;5.70;;;1.98;;
17917;SDS011;9084;50.956;3.106;2022-09-17T02:39:54;10.77;;;1.90;;
17917;SDS011;9084;50.956;3.106;2022-09-17T02:50:59;4.35;;;1.40;;
17917;SDS011;9084;50.956;3.106;2022-09-17T03:02:36;8.93;;;1.88;;
17917;SDS011;9084;50.956;3.106;2022-09-17T03:05:23;4.90;;;1.42;;
17917;SDS011;9084;50.956;3.106;2022-09-17T03:07:55;7.47;;;1.75;;
17917;SDS011;9084;50.956;3.106;2022-09-17T03:10:23;8.00;;;1.65;;
17917;SDS011;9084;50.956;3.106;2022-09-17T03:12:49;6.35;;;1.55;;
17917;SDS011;9084;50.956;3.106;2022-09-17T03:15:17;11.35;;;1.80;;
17917;SDS011;9084;50.956;3.106;2022-09-17T03:17:43;8.77;;;1.60;;
17917;SDS011;9084;50.956;3.106;2022-09-17T03:20:11;6.10;;;1.45;;
17917;SDS011;9084;50.956;3.106;2022-09-17T03:22:40;5.70;;;1.27;;
17917;SDS011;9084;50.956;3.106;2022-09-17T03:25:06;4.45;;;1.10;;
17917;SDS011;9084;50.956;3.106;2022-09-17T03:27:35;4.80;;;1.67;;
17917;SDS011;9084;50.956;3.106;2022-09-17T03:30:01;4.78;;;1.50;;
17917;SDS011;9084;50.956;3.106;2022-09-17T03:32:28;7.15;;;1.95;;
17917;SDS011;9084;50.956;3.106;2022-09-17T03:34:53;4.80;;;1.25;;
17917;SDS011;9084;50.956;3.106;2022-09-17T03:37:22;5.28;;;0.90;;
17917;SDS011;9084;50.956;3.106;2022-09-17T03:39:48;6.97;;;1.70;;
17917;SDS011;9084;50.956;3.106;2022-09-17T03:42:13;5.43;;;1.00;;
17917;SDS011;9084;50.956;3.106;2022-09-17T03:44:39;5.53;;;1.73;;
17917;SDS011;9084;50.956;3.106;2022-09-17T03:47:07;6.65;;;1.63;;
17917;SDS011;9084;50.956;3.106;2022-09-17T03:49:36;5.40;;;1.80;;
17917;SDS011;9084;50.956;3.106;2022-09-17T03:52:02;5.18;;;1.45;;
17917;SDS011;9084;50.956;3.106;2022-09-17T03:54:28;3.75;;;1.30;;
17917;SDS011;9084;50.956;3.106;2022-09-17T03:56:54;9.07;;;1.50;;
17917;SDS011;9084;50.956;3.106;2022-09-17T03:59:22;2.63;;;1.20;;
17917;SDS011;9084;50.956;3.106;2022-09-17T04:01:50;8.27;;;1.42;;
17917;SDS011;9084;50.956;3.106;2022-09-17T04:04:15;5.40;;;1.27;;
17917;SDS011;9084;50.956;3.106;2022-09-17T04:06:41;7.82;;;1.48;;
17917;SDS011;9084;50.956;3.106;2022-09-17T04:09:06;3.78;;;1.30;;
17917;SDS011;9084;50.956;3.106;2022-09-17T04:11:32;3.08;;;0.90;;
17917;SDS011;9084;50.956;3.106;2022-09-17T04:14:00;3.58;;;0.70;;
17917;SDS011;9084;50.956;3.106;2022-09-17T04:16:31;3.35;;;1.30;;
17917;SDS011;9084;50.956;3.106;2022-09-17T04:18:57;3.95;;;1.00;;
17917;SDS011;9084;50.956;3.106;2022-09-17T04:21:23;4.32;;;1.10;;
17917;SDS011;9084;50.956;3.106;2022-09-17T04:23:49;6.53;;;1.02;;
17917;SDS011;9084;50.956;3.106;2022-09-17T04:26:17;6.57;;;1.63;;
17917;SDS011;9084;50.956;3.106;2022-09-17T04:28:46;4.97;;;1.73;;
17917;SDS011;9084;50.956;3.106;2022-09-17T04:31:11;2.95;;;1.10;;
17917;SDS011;9084;50.956;3.106;2022-09-17T04:33:37;9.35;;;1.58;;
17917;SDS011;9084;50.956;3.106;2022-09-17T04:36:03;4.13;;;1.20;;
17917;SDS011;9084;50.956;3.106;2022-09-17T04:38:32;6.80;;;1.05;;
17917;SDS011;9084;50.956;3.106;2022-09-17T04:40:58;6.55;;;1.52;;
17917;SDS011;9084;50.956;3.106;2022-09-17T04:43:24;3.80;;;0.90;;
17917;SDS011;9084;50.956;3.106;2022-09-17T04:45:50;2.55;;;0.80;;
17917;SDS011;9084;50.956;3.106;2022-09-17T04:48:16;3.92;;;1.40;;
17917;SDS011;9084;50.956;3.106;2022-09-17T04:50:44;4.28;;;1.40;;
17917;SDS011;9084;50.956;3.106;2022-09-17T04:53:10;8.52;;;1.67;;
17917;SDS011;9084;50.956;3.106;2022-09-17T04:55:36;5.57;;;1.80;;
17917;SDS011;9084;50.956;3.106;2022-09-17T04:58:02;5.25;;;1.70;;
17917;SDS011;9084;50.956;3.106;2022-09-17T05:00:30;8.20;;;1.88;;
17917;SDS011;9084;50.956;3.106;2022-09-17T05:02:56;7.18;;;1.60;;
17917;SDS011;9084;50.956;3.106;2022-09-17T05:05:22;7.55;;;1.60;;
17917;SDS011;9084;50.956;3.106;2022-09-17T05:07:51;8.32;;;1.92;;
17917;SDS011;9084;50.956;3.106;2022-09-17T05:10:17;10.32;;;1.52;;
17917;SDS011;9084;50.956;3.106;2022-09-17T05:12:48;6.20;;;1.70;;
17917;SDS011;9084;50.956;3.106;2022-09-17T05:15:19;5.78;;;1.83;;
17917;SDS011;9084;50.956;3.106;2022-09-17T05:17:46;7.65;;;2.13;;
17917;SDS011;9084;50.956;3.106;2022-09-17T05:20:12;9.50;;;2.35;;
17917;SDS011;9084;50.956;3.106;2022-09-17T05:22:40;8.90;;;1.63;;
17917;SDS011;9084;50.956;3.106;2022-09-17T05:25:10;9.68;;;2.28;;
17917;SDS011;9084;50.956;3.106;2022-09-17T05:27:37;10.95;;;2.30;;
17917;SDS011;9084;50.956;3.106;2022-09-17T05:30:03;6.10;;;2.30;;
17917;SDS011;9084;50.956;3.106;2022-09-17T05:32:30;7.72;;;1.48;;
17917;SDS011;9084;50.956;3.106;2022-09-17T05:34:58;8.25;;;1.92;;
17917;SDS011;9084;50.956;3.106;2022-09-17T05:37:24;8.02;;;1.50;;
17917;SDS011;9084;50.956;3.106;2022-09-17T05:39:50;4.38;;;1.30;;
17917;SDS011;9084;50.956;3.106;2022-09-17T05:42:16;7.53;;;1.52;;
17917;SDS011;9084;50.956;3.106;2022-09-17T05:44:44;6.57;;;1.52;;
17917;SDS011;9084;50.956;3.106;2022-09-17T05:47:10;5.10;;;1.85;;
17917;SDS011;9084;50.956;3.106;2022-09-17T05:49:36;9.35;;;2.03;;
17917;SDS011;9084;50.956;3.106;2022-09-17T05:52:06;4.82;;;1.50;;
17917;SDS011;9084;50.956;3.106;2022-09-17T05:54:32;5.72;;;1.40;;
17917;SDS011;9084;50.956;3.106;2022-09-17T05:56:57;8.25;;;1.48;;
17917;SDS011;9084;50.956;3.106;2022-09-17T05:59:23;5.50;;;1.75;;
17917;SDS011;9084;50.956;3.106;2022-09-17T06:01:51;6.03;;;1.50;;
17917;SDS011;9084;50.956;3.106;2022-09-17T06:04:19;9.27;;;2.45;;
17917;SDS011;9084;50.956;3.106;2022-09-17T06:06:45;7.28;;;1.58;;
17917;SDS011;9084;50.956;3.106;2022-09-17T06:09:11;7.78;;;1.45;;
17917;SDS011;9084;50.956;3.106;2022-09-17T06:11:37;4.68;;;0.93;;
17917;SDS011;9084;50.956;3.106;2022-09-17T06:14:05;3.83;;;0.90;;
17917;SDS011;9084;50.956;3.106;2022-09-17T06:16:33;7.45;;;2.00;;
17917;SDS011;9084;50.956;3.106;2022-09-17T06:19:03;4.53;;;1.45;;
17917;SDS011;9084;50.956;3.106;2022-09-17T06:21:29;6.18;;;1.75;;
17917;SDS011;9084;50.956;3.106;2022-09-17T06:23:57;5.65;;;1.63;;
17917;SDS011;9084;50.956;3.106;2022-09-17T06:26:24;5.88;;;1.60;;
17917;SDS011;9084;50.956;3.106;2022-09-17T06:28:53;5.43;;;1.52;;
17917;SDS011;9084;50.956;3.106;2022-09-17T06:31:18;6.85;;;1.50;;
17917;SDS011;9084;50.956;3.106;2022-09-17T06:33:44;4.72;;;1.80;;
17917;SDS011;9084;50.956;3.106;2022-09-17T06:36:12;6.95;;;1.40;;
17917;SDS011;9084;50.956;3.106;2022-09-17T06:38:41;9.25;;;1.27;;
17917;SDS011;9084;50.956;3.106;2022-09-17T06:41:07;10.00;;;1.77;;
17917;SDS011;9084;50.956;3.106;2022-09-17T06:43:43;6.43;;;1.80;;
17917;SDS011;9084;50.956;3.106;2022-09-17T06:46:09;3.75;;;1.67;;
17917;SDS011;9084;50.956;3.106;2022-09-17T06:48:36;7.07;;;1.52;;
17917;SDS011;9084;50.956;3.106;2022-09-17T06:51:07;8.07;;;1.65;;
17917;SDS011;9084;50.956;3.106;2022-09-17T06:53:36;5.05;;;1.38;;
17917;SDS011;9084;50.956;3.106;2022-09-17T06:56:04;7.13;;;1.75;;
17917;SDS011;9084;50.956;3.106;2022-09-17T06:58:31;3.75;;;1.00;;
17917;SDS011;9084;50.956;3.106;2022-09-17T07:01:01;7.63;;;1.63;;
17917;SDS011;9084;50.956;3.106;2022-09-17T07:03:29;4.75;;;0.95;;
17917;SDS011;9084;50.956;3.106;2022-09-17T07:05:58;4.10;;;1.35;;
17917;SDS011;9084;50.956;3.106;2022-09-17T07:08:24;7.53;;;1.45;;
17917;SDS011;9084;50.956;3.106;2022-09-17T07:10:56;4.93;;;1.52;;
17917;SDS011;9084;50.956;3.106;2022-09-17T07:13:23;6.35;;;1.65;;
17917;SDS011;9084;50.956;3.106;2022-09-17T07:15:58;11.25;;;1.50;;
17917;SDS011;9084;50.956;3.106;2022-09-17T07:18:25;5.18;;;1.58;;
17917;SDS011;9084;50.956;3.106;2022-09-17T07:20:55;6.20;;;1.27;;
17917;SDS011;9084;50.956;3.106;2022-09-17T07:23:30;4.65;;;1.15;;
17917;SDS011;9084;50.956;3.106;2022-09-17T07:25:58;8.27;;;1.52;;
17917;SDS011;9084;50.956;3.106;2022-09-17T07:28:26;7.68;;;1.63;;
17917;SDS011;9084;50.956;3.106;2022-09-17T07:30:53;5.57;;;1.73;;
17917;SDS011;9084;50.956;3.106;2022-09-17T07:33:22;6.18;;;1.08;;
17917;SDS011;9084;50.956;3.106;2022-09-17T07:35:58;6.13;;;1.60;;
17917;SDS011;9084;50.956;3.106;2022-09-17T07:38:26;4.13;;;1.70;;
17917;SDS011;9084;50.956;3.106;2022-09-17T07:40:55;6.35;;;1.20;;
17917;SDS011;9084;50.956;3.106;2022-09-17T07:43:22;4.90;;;0.88;;
17917;SDS011;9084;50.956;3.106;2022-09-17T07:45:52;4.68;;;1.50;;
17917;SDS011;9084;50.956;3.106;2022-09-17T07:48:19;6.82;;;1.50;;
17917;SDS011;9084;50.956;3.106;2022-09-17T07:50:45;6.43;;;1.52;;
17917;SDS011;9084;50.956;3.106;2022-09-17T07:53:12;4.93;;;1.55;;
17917;SDS011;9084;50.956;3.106;2022-09-17T07:55:38;6.00;;;1.63;;
17917;SDS011;9084;50.956;3.106;2022-09-17T07:58:04;8.82;;;1.75;;
17917;SDS011;9084;50.956;3.106;2022-09-17T08:00:30;4.15;;;1.35;;
17917;SDS011;9084;50.956;3.106;2022-09-17T08:03:01;4.13;;;1.48;;
17917;SDS011;9084;50.956;3.106;2022-09-17T08:05:27;3.53;;;1.00;;
17917;SDS011;9084;50.956;3.106;2022-09-17T08:07:55;4.40;;;1.05;;
17917;SDS011;9084;50.956;3.106;2022-09-17T08:10:21;5.72;;;1.40;;
17917;SDS011;9084;50.956;3.106;2022-09-17T08:12:48;3.92;;;1.35;;
17917;SDS011;9084;50.956;3.106;2022-09-17T08:15:15;4.95;;;1.13;;
17917;SDS011;9084;50.956;3.106;2022-09-17T08:17:42;1.73;;;0.90;;
17917;SDS011;9084;50.956;3.106;2022-09-17T08:20:11;5.97;;;1.50;;
17917;SDS011;9084;50.956;3.106;2022-09-17T08:22:38;4.85;;;0.77;;
17917;SDS011;9084;50.956;3.106;2022-09-17T08:25:05;2.38;;;0.80;;
17917;SDS011;9084;50.956;3.106;2022-09-17T08:27:31;2.90;;;0.90;;
17917;SDS011;9084;50.956;3.106;2022-09-17T08:29:57;2.95;;;0.85;;
17917;SDS011;9084;50.956;3.106;2022-09-17T08:32:23;2.33;;;0.93;;
17917;SDS011;9084;50.956;3.106;2022-09-17T08:34:49;7.00;;;1.23;;
17917;SDS011;9084;50.956;3.106;2022-09-17T08:37:18;2.30;;;0.88;;
17917;SDS011;9084;50.956;3.106;2022-09-17T08:39:44;3.85;;;0.95;;
17917;SDS011;9084;50.956;3.106;2022-09-17T08:44:45;4.30;;;1.10;;
17917;SDS011;9084;50.956;3.106;2022-09-17T08:47:15;3.70;;;0.80;;
17917;SDS011;9084;50.956;3.106;2022-09-17T08:50:06;2.70;;;1.00;;
17917;SDS011;9084;50.956;3.106;2022-09-17T08:52:52;4.47;;;1.20;;
17917;SDS011;9084;50.956;3.106;2022-09-17T08:55:42;4.05;;;1.33;;
17917;SDS011;9084;50.956;3.106;2022-09-17T08:58:32;8.18;;;1.48;;
17917;SDS011;9084;50.956;3.106;2022-09-17T09:04:15;5.22;;;1.25;;
17917;SDS011;9084;50.956;3.106;2022-09-17T09:07:23;4.47;;;1.60;;
17917;SDS011;9084;50.956;3.106;2022-09-17T09:12:47;6.10;;;1.58;;
17917;SDS011;9084;50.956;3.106;2022-09-17T09:17:53;5.70;;;1.15;;
17917;SDS011;9084;50.956;3.106;2022-09-17T09:21:06;5.93;;;1.60;;
17917;SDS011;9084;50.956;3.106;2022-09-17T09:23:18;5.80;;;1.65;;
17917;SDS011;9084;50.956;3.106;2022-09-17T09:26:07;3.78;;;1.00;;
17917;SDS011;9084;50.956;3.106;2022-09-17T09:33:47;4.65;;;1.00;;
17917;SDS011;9084;50.956;3.106;2022-09-17T09:36:19;2.28;;;0.82;;
17917;SDS011;9084;50.956;3.106;2022-09-17T09:42:39;4.47;;;1.17;;
17917;SDS011;9084;50.956;3.106;2022-09-17T09:44:40;3.50;;;1.08;;
17917;SDS011;9084;50.956;3.106;2022-09-17T09:49:51;7.63;;;0.98;;
17917;SDS011;9084;50.956;3.106;2022-09-17T10:00:49;3.53;;;1.00;;
17917;SDS011;9084;50.956;3.106;2022-09-17T10:03:17;6.05;;;1.20;;
17917;SDS011;9084;50.956;3.106;2022-09-17T10:08:18;6.65;;;1.10;;
17917;SDS011;9084;50.956;3.106;2022-09-17T10:13:40;5.28;;;1.05;;
17917;SDS011;9084;50.956;3.106;2022-09-17T10:16:19;4.43;;;1.10;;
17917;SDS011;9084;50.956;3.106;2022-09-17T10:18:51;8.25;;;1.50;;
17917;SDS011;9084;50.956;3.106;2022-09-17T10:21:48;2.90;;;1.10;;
17917;SDS011;9084;50.956;3.106;2022-09-17T10:24:25;5.53;;;1.20;;
17917;SDS011;9084;50.956;3.106;2022-09-17T10:27:00;5.15;;;1.17;;
17917;SDS011;9084;50.956;3.106;2022-09-17T10:29:28;3.47;;;1.10;;
17917;SDS011;9084;50.956;3.106;2022-09-17T10:31:57;4.45;;;1.25;;
17917;SDS011;9084;50.956;3.106;2022-09-17T10:34:27;2.95;;;1.00;;
17917;SDS011;9084;50.956;3.106;2022-09-17T10:36:57;5.38;;;1.42;;
17917;SDS011;9084;50.956;3.106;2022-09-17T10:44:28;4.78;;;1.17;;
17917;SDS011;9084;50.956;3.106;2022-09-17T10:47:05;2.25;;;0.98;;
17917;SDS011;9084;50.956;3.106;2022-09-17T10:55:45;3.97;;;1.20;;
17917;SDS011;9084;50.956;3.106;2022-09-17T11:01:21;6.00;;;1.48;;
17917;SDS011;9084;50.956;3.106;2022-09-17T11:26:26;6.90;;;1.60;;
17917;SDS011;9084;50.956;3.106;2022-09-17T11:37:11;5.47;;;1.35;;
17917;SDS011;9084;50.956;3.106;2022-09-17T11:42:14;10.05;;;1.30;;
17917;SDS011;9084;50.956;3.106;2022-09-17T11:47:24;4.00;;;1.42;;
17917;SDS011;9084;50.956;3.106;2022-09-17T11:50:19;6.07;;;1.38;;
17917;SDS011;9084;50.956;3.106;2022-09-17T11:55:27;6.93;;;1.50;;
17917;SDS011;9084;50.956;3.106;2022-09-17T11:58:03;2.38;;;0.90;;
17917;SDS011;9084;50.956;3.106;2022-09-17T12:00:43;7.43;;;1.42;;
17917;SDS011;9084;50.956;3.106;2022-09-17T12:03:29;3.45;;;1.08;;
17917;SDS011;9084;50.956;3.106;2022-09-17T12:06:05;6.30;;;1.50;;
17917;SDS011;9084;50.956;3.106;2022-09-17T12:08:56;5.88;;;1.27;;
17917;SDS011;9084;50.956;3.106;2022-09-17T12:14:42;2.63;;;1.27;;
17917;SDS011;9084;50.956;3.106;2022-09-17T12:16:57;5.95;;;1.38;;
17917;SDS011;9084;50.956;3.106;2022-09-17T12:19:30;3.33;;;1.02;;
17917;SDS011;9084;50.956;3.106;2022-09-17T12:22:13;3.15;;;1.00;;
17917;SDS011;9084;50.956;3.106;2022-09-17T12:24:49;2.53;;;0.90;;
17917;SDS011;9084;50.956;3.106;2022-09-17T12:30:14;4.47;;;1.10;;
17917;SDS011;9084;50.956;3.106;2022-09-17T12:35:41;4.07;;;1.42;;
17917;SDS011;9084;50.956;3.106;2022-09-17T12:41:09;4.68;;;1.20;;
17917;SDS011;9084;50.956;3.106;2022-09-17T12:49:25;3.05;;;1.05;;
17917;SDS011;9084;50.956;3.106;2022-09-17T13:00:41;6.85;;;1.05;;
17917;SDS011;9084;50.956;3.106;2022-09-17T13:06:25;5.55;;;1.17;;
17917;SDS011;9084;50.956;3.106;2022-09-17T13:17:25;5.78;;;1.27;;
17917;SDS011;9084;50.956;3.106;2022-09-17T13:22:50;4.47;;;1.35;;
17917;SDS011;9084;50.956;3.106;2022-09-17T13:25:21;3.88;;;1.58;;
17917;SDS011;9084;50.956;3.106;2022-09-17T13:27:49;4.15;;;1.15;;
17917;SDS011;9084;50.956;3.106;2022-09-17T13:30:31;4.60;;;1.20;;
17917;SDS011;9084;50.956;3.106;2022-09-17T13:39:01;5.43;;;1.13;;
17917;SDS011;9084;50.956;3.106;2022-09-17T13:41:27;2.90;;;0.90;;
17917;SDS011;9084;50.956;3.106;2022-09-17T13:43:57;4.50;;;1.20;;
17917;SDS011;9084;50.956;3.106;2022-09-17T13:46:24;2.58;;;1.00;;
17917;SDS011;9084;50.956;3.106;2022-09-17T13:48:57;2.88;;;0.95;;
17917;SDS011;9084;50.956;3.106;2022-09-17T13:53:58;3.78;;;1.40;;
17917;SDS011;9084;50.956;3.106;2022-09-17T13:56:30;3.92;;;0.90;;
17917;SDS011;9084;50.956;3.106;2022-09-17T13:59:08;2.42;;;1.05;;
17917;SDS011;9084;50.956;3.106;2022-09-17T14:09:55;4.90;;;1.35;;
17917;SDS011;9084;50.956;3.106;2022-09-17T14:23:40;2.63;;;1.00;;
17917;SDS011;9084;50.956;3.106;2022-09-17T14:26:13;3.60;;;0.80;;
17917;SDS011;9084;50.956;3.106;2022-09-17T14:31:32;4.60;;;1.20;;
17917;SDS011;9084;50.956;3.106;2022-09-17T14:34:04;1.90;;;1.05;;
17917;SDS011;9084;50.956;3.106;2022-09-17T14:36:40;8.18;;;2.03;;
17917;SDS011;9084;50.956;3.106;2022-09-17T14:39:13;5.40;;;2.10;;
17917;SDS011;9084;50.956;3.106;2022-09-17T14:41:45;3.30;;;1.08;;
17917;SDS011;9084;50.956;3.106;2022-09-17T14:44:19;7.32;;;2.33;;
17917;SDS011;9084;50.956;3.106;2022-09-17T14:46:59;4.53;;;1.05;;
17917;SDS011;9084;50.956;3.106;2022-09-17T14:49:35;3.97;;;1.08;;
17917;SDS011;9084;50.956;3.106;2022-09-17T14:52:18;3.13;;;1.10;;
17917;SDS011;9084;50.956;3.106;2022-09-17T14:57:48;2.33;;;1.00;;
17917;SDS011;9084;50.956;3.106;2022-09-17T15:00:25;4.10;;;1.23;;
17917;SDS011;9084;50.956;3.106;2022-09-17T15:02:57;3.50;;;1.10;;
17917;SDS011;9084;50.956;3.106;2022-09-17T15:05:30;6.45;;;1.05;;
17917;SDS011;9084;50.956;3.106;2022-09-17T15:08:03;9.20;;;1.83;;
17917;SDS011;9084;50.956;3.106;2022-09-17T15:10:33;2.60;;;0.90;;
17917;SDS011;9084;50.956;3.106;2022-09-17T15:13:12;3.72;;;1.20;;
17917;SDS011;9084;50.956;3.106;2022-09-17T15:15:49;3.78;;;0.80;;
17917;SDS011;9084;50.956;3.106;2022-09-17T15:18:25;3.80;;;1.10;;
17917;SDS011;9084;50.956;3.106;2022-09-17T15:21:00;4.07;;;1.10;;
17917;SDS011;9084;50.956;3.106;2022-09-17T15:23:28;6.05;;;1.10;;
17917;SDS011;9084;50.956;3.106;2022-09-17T15:25:57;3.70;;;1.00;;
17917;SDS011;9084;50.956;3.106;2022-09-17T15:28:43;5.13;;;1.23;;
17917;SDS011;9084;50.956;3.106;2022-09-17T15:31:15;3.63;;;1.45;;
17917;SDS011;9084;50.956;3.106;2022-09-17T15:33:45;2.78;;;1.05;;
17917;SDS011;9084;50.956;3.106;2022-09-17T15:38:47;2.92;;;0.80;;
17917;SDS011;9084;50.956;3.106;2022-09-17T15:43:53;2.78;;;1.00;;
17917;SDS011;9084;50.956;3.106;2022-09-17T15:46:30;3.00;;;0.98;;
17917;SDS011;9084;50.956;3.106;2022-09-17T15:48:57;4.82;;;1.50;;
17917;SDS011;9084;50.956;3.106;2022-09-17T15:51:27;3.75;;;1.05;;
17917;SDS011;9084;50.956;3.106;2022-09-17T15:53:56;4.63;;;1.40;;
17917;SDS011;9084;50.956;3.106;2022-09-17T15:56:29;4.13;;;1.25;;
17917;SDS011;9084;50.956;3.106;2022-09-17T15:59:02;3.60;;;1.02;;
17917;SDS011;9084;50.956;3.106;2022-09-17T16:06:58;4.68;;;1.17;;
17917;SDS011;9084;50.956;3.106;2022-09-17T16:09:37;5.03;;;1.10;;
17917;SDS011;9084;50.956;3.106;2022-09-17T16:12:03;3.67;;;1.20;;
17917;SDS011;9084;50.956;3.106;2022-09-17T16:14:29;6.88;;;1.25;;
17917;SDS011;9084;50.956;3.106;2022-09-17T16:16:55;2.78;;;1.20;;
17917;SDS011;9084;50.956;3.106;2022-09-17T16:19:25;4.03;;;1.63;;
17917;SDS011;9084;50.956;3.106;2022-09-17T16:21:53;4.88;;;1.42;;
17917;SDS011;9084;50.956;3.106;2022-09-17T16:24:19;3.53;;;1.17;;
17917;SDS011;9084;50.956;3.106;2022-09-17T16:26:44;5.18;;;1.38;;
17917;SDS011;9084;50.956;3.106;2022-09-17T16:29:15;4.43;;;1.27;;
17917;SDS011;9084;50.956;3.106;2022-09-17T16:31:42;3.40;;;1.05;;
17917;SDS011;9084;50.956;3.106;2022-09-17T16:34:08;2.53;;;0.93;;
17917;SDS011;9084;50.956;3.106;2022-09-17T16:36:34;7.45;;;1.63;;
17917;SDS011;9084;50.956;3.106;2022-09-17T16:39:00;4.90;;;1.20;;
17917;SDS011;9084;50.956;3.106;2022-09-17T16:41:29;7.20;;;1.52;;
17917;SDS011;9084;50.956;3.106;2022-09-17T16:43:57;2.95;;;0.90;;
17917;SDS011;9084;50.956;3.106;2022-09-17T16:46:22;3.20;;;1.00;;
17917;SDS011;9084;50.956;3.106;2022-09-17T16:48:48;4.88;;;1.10;;
17917;SDS011;9084;50.956;3.106;2022-09-17T16:51:14;2.90;;;0.68;;
17917;SDS011;9084;50.956;3.106;2022-09-17T16:53:40;3.00;;;1.13;;
17917;SDS011;9084;50.956;3.106;2022-09-17T16:56:06;4.70;;;1.17;;
17917;SDS011;9084;50.956;3.106;2022-09-17T16:58:37;4.53;;;0.90;;
17917;SDS011;9084;50.956;3.106;2022-09-17T17:01:06;2.15;;;1.00;;
17917;SDS011;9084;50.956;3.106;2022-09-17T17:03:33;2.22;;;0.90;;
17917;SDS011;9084;50.956;3.106;2022-09-17T17:05:58;3.03;;;1.25;;
17917;SDS011;9084;50.956;3.106;2022-09-17T17:08:24;3.78;;;1.25;;
17917;SDS011;9084;50.956;3.106;2022-09-17T17:10:50;4.03;;;0.88;;
17917;SDS011;9084;50.956;3.106;2022-09-17T17:13:15;2.20;;;0.70;;
17917;SDS011;9084;50.956;3.106;2022-09-17T17:15:43;5.18;;;1.52;;
17917;SDS011;9084;50.956;3.106;2022-09-17T17:18:10;2.70;;;0.82;;
17917;SDS011;9084;50.956;3.106;2022-09-17T17:20:35;5.22;;;0.90;;
17917;SDS011;9084;50.956;3.106;2022-09-17T17:23:04;4.13;;;1.10;;
17917;SDS011;9084;50.956;3.106;2022-09-17T17:25:32;3.35;;;0.80;;
17917;SDS011;9084;50.956;3.106;2022-09-17T17:27:58;3.13;;;0.80;;
17917;SDS011;9084;50.956;3.106;2022-09-17T17:30:24;2.75;;;0.93;;
17917;SDS011;9084;50.956;3.106;2022-09-17T17:32:51;3.30;;;0.65;;
17917;SDS011;9084;50.956;3.106;2022-09-17T17:35:19;3.50;;;1.30;;
17917;SDS011;9084;50.956;3.106;2022-09-17T17:37:45;5.10;;;1.08;;
17917;SDS011;9084;50.956;3.106;2022-09-17T17:40:12;2.40;;;0.60;;
17917;SDS011;9084;50.956;3.106;2022-09-17T17:42:38;3.10;;;0.70;;
17917;SDS011;9084;50.956;3.106;2022-09-17T17:45:08;3.70;;;1.50;;
17917;SDS011;9084;50.956;3.106;2022-09-17T17:47:36;3.50;;;0.70;;
17917;SDS011;9084;50.956;3.106;2022-09-17T17:50:04;2.58;;;1.08;;
17917;SDS011;9084;50.956;3.106;2022-09-17T17:52:30;4.63;;;1.33;;
17917;SDS011;9084;50.956;3.106;2022-09-17T17:54:58;3.40;;;2.17;;
17917;SDS011;9084;50.956;3.106;2022-09-17T17:57:24;6.88;;;1.40;;
17917;SDS011;9084;50.956;3.106;2022-09-17T17:59:49;5.25;;;0.77;;
17917;SDS011;9084;50.956;3.106;2022-09-17T18:02:15;3.42;;;0.93;;
17917;SDS011;9084;50.956;3.106;2022-09-17T18:04:41;2.63;;;0.60;;
17917;SDS011;9084;50.956;3.106;2022-09-17T18:07:07;3.88;;;0.70;;
17917;SDS011;9084;50.956;3.106;2022-09-17T18:09:33;3.03;;;0.77;;
17917;SDS011;9084;50.956;3.106;2022-09-17T18:11:59;2.55;;;0.40;;
17917;SDS011;9084;50.956;3.106;2022-09-17T18:14:27;3.53;;;0.57;;
17917;SDS011;9084;50.956;3.106;2022-09-17T18:16:54;3.05;;;0.55;;
17917;SDS011;9084;50.956;3.106;2022-09-17T18:19:20;2.63;;;1.13;;
17917;SDS011;9084;50.956;3.106;2022-09-17T18:21:48;3.90;;;0.75;;
17917;SDS011;9084;50.956;3.106;2022-09-17T18:24:14;2.35;;;0.70;;
17917;SDS011;9084;50.956;3.106;2022-09-17T18:26:39;2.90;;;0.85;;
17917;SDS011;9084;50.956;3.106;2022-09-17T18:29:05;1.83;;;0.47;;
17917;SDS011;9084;50.956;3.106;2022-09-17T18:31:32;2.15;;;0.80;;
17917;SDS011;9084;50.956;3.106;2022-09-17T18:34:02;2.17;;;1.13;;
17917;SDS011;9084;50.956;3.106;2022-09-17T18:36:31;2.47;;;0.82;;
17917;SDS011;9084;50.956;3.106;2022-09-17T18:39:00;4.45;;;1.48;;
17917;SDS011;9084;50.956;3.106;2022-09-17T18:41:33;1.67;;;0.90;;
17917;SDS011;9084;50.956;3.106;2022-09-17T18:44:04;5.05;;;0.90;;
17917;SDS011;9084;50.956;3.106;2022-09-17T18:46:33;2.97;;;1.08;;
17917;SDS011;9084;50.956;3.106;2022-09-17T18:48:59;3.20;;;1.10;;
17917;SDS011;9084;50.956;3.106;2022-09-17T18:51:26;2.20;;;0.80;;
17917;SDS011;9084;50.956;3.106;2022-09-17T18:53:52;4.43;;;0.73;;
17917;SDS011;9084;50.956;3.106;2022-09-17T18:56:26;5.20;;;0.95;;
17917;SDS011;9084;50.956;3.106;2022-09-17T18:58:54;1.23;;;0.70;;
17917;SDS011;9084;50.956;3.106;2022-09-17T19:01:25;2.35;;;1.05;;
17917;SDS011;9084;50.956;3.106;2022-09-17T19:03:55;1.88;;;0.60;;